sensor_id;sensor_type;location;lat;lon;timestamp;temperature;humidity
70170;DHT22;57543;45.442;9.212;2023-06-19T00:02:15;25.27;59.30
70170;DHT22;57543;45.442;9.212;2023-06-19T00:05:18;25.31;59.01
70170;DHT22;57543;45.442;9.212;2023-06-19T00:08:22;25.31;58.94
70170;DHT22;57543;45.442;9.212;2023-06-19T00:11:25;25.14;59.19
70170;DHT22;57543;45.442;9.212;2023-06-19T00:14:28;25.10;59.29
70170;DHT22;57543;45.442;9.212;2023-06-19T00:17:32;25.10;59.10
70170;DHT22;57543;45.442;9.212;2023-06-19T00:20:36;25.03;59.37
70170;DHT22;57543;45.442;9.212;2023-06-19T00:23:39;24.97;59.22
70170;DHT22;57543;45.442;9.212;2023-06-19T00:26:43;24.80;59.68
70170;DHT22;57543;45.442;9.212;2023-06-19T00:29:46;24.87;59.93
70170;DHT22;57543;45.442;9.212;2023-06-19T00:32:50;24.91;59.58
70170;DHT22;57543;45.442;9.212;2023-06-19T00:35:56;24.91;59.10
70170;DHT22;57543;45.442;9.212;2023-06-19T00:38:59;24.93;59.50
70170;DHT22;57543;45.442;9.212;2023-06-19T00:42:04;25.06;59.42
70170;DHT22;57543;45.442;9.212;2023-06-19T00:45:07;25.12;58.79
70170;DHT22;57543;45.442;9.212;2023-06-19T00:48:11;25.12;59.19
70170;DHT22;57543;45.442;9.212;2023-06-19T00:51:15;25.11;59.81
70170;DHT22;57543;45.442;9.212;2023-06-19T00:54:19;25.11;60.03
70170;DHT22;57543;45.442;9.212;2023-06-19T00:57:23;25.11;60.14
70170;DHT22;57543;45.442;9.212;2023-06-19T01:00:27;25.10;60.25
70170;DHT22;57543;45.442;9.212;2023-06-19T01:03:31;25.18;60.08
70170;DHT22;57543;45.442;9.212;2023-06-19T01:06:58;25.14;60.10
70170;DHT22;57543;45.442;9.212;2023-06-19T01:10:06;25.11;60.26
70170;DHT22;57543;45.442;9.212;2023-06-19T01:13:31;25.01;60.70
70170;DHT22;57543;45.442;9.212;2023-06-19T01:16:36;25.07;60.73
70170;DHT22;57543;45.442;9.212;2023-06-19T01:19:39;25.10;60.54
70170;DHT22;57543;45.442;9.212;2023-06-19T01:22:43;25.14;60.57
70170;DHT22;57543;45.442;9.212;2023-06-19T01:25:47;25.14;60.86
70170;DHT22;57543;45.442;9.212;2023-06-19T01:28:51;25.11;61.09
70170;DHT22;57543;45.442;9.212;2023-06-19T01:32:02;25.12;61.73
70170;DHT22;57543;45.442;9.212;2023-06-19T01:35:08;25.07;61.82
70170;DHT22;57543;45.442;9.212;2023-06-19T01:38:13;24.98;61.44
70170;DHT22;57543;45.442;9.212;2023-06-19T01:41:18;24.98;61.37
70170;DHT22;57543;45.442;9.212;2023-06-19T01:44:22;24.91;61.66
70170;DHT22;57543;45.442;9.212;2023-06-19T01:47:26;24.83;61.59
70170;DHT22;57543;45.442;9.212;2023-06-19T01:50:30;24.88;61.84
70170;DHT22;57543;45.442;9.212;2023-06-19T01:53:33;24.83;61.36
70170;DHT22;57543;45.442;9.212;2023-06-19T01:56:40;24.84;61.53
70170;DHT22;57543;45.442;9.212;2023-06-19T01:59:43;24.70;61.62
70170;DHT22;57543;45.442;9.212;2023-06-19T02:02:47;24.77;61.74
70170;DHT22;57543;45.442;9.212;2023-06-19T02:05:51;24.87;61.64
70170;DHT22;57543;45.442;9.212;2023-06-19T02:08:55;24.90;60.98
70170;DHT22;57543;45.442;9.212;2023-06-19T02:11:58;24.87;60.58
70170;DHT22;57543;45.442;9.212;2023-06-19T02:15:02;24.72;60.98
70170;DHT22;57543;45.442;9.212;2023-06-19T02:18:08;24.83;60.93
70170;DHT22;57543;45.442;9.212;2023-06-19T02:21:11;24.90;59.74
70170;DHT22;57543;45.442;9.212;2023-06-19T02:24:15;24.95;60.29
70170;DHT22;57543;45.442;9.212;2023-06-19T02:27:18;25.00;60.60
70170;DHT22;57543;45.442;9.212;2023-06-19T02:30:22;24.94;60.47
70170;DHT22;57543;45.442;9.212;2023-06-19T02:33:26;25.04;58.81
70170;DHT22;57543;45.442;9.212;2023-06-19T02:36:29;25.07;57.81
70170;DHT22;57543;45.442;9.212;2023-06-19T02:39:33;25.12;57.29
70170;DHT22;57543;45.442;9.212;2023-06-19T02:42:37;25.11;57.17
70170;DHT22;57543;45.442;9.212;2023-06-19T02:45:40;25.01;57.47
70170;DHT22;57543;45.442;9.212;2023-06-19T02:48:44;25.01;57.05
70170;DHT22;57543;45.442;9.212;2023-06-19T02:51:47;25.08;56.78
70170;DHT22;57543;45.442;9.212;2023-06-19T02:54:51;25.08;55.99
70170;DHT22;57543;45.442;9.212;2023-06-19T02:57:55;25.11;55.99
70170;DHT22;57543;45.442;9.212;2023-06-19T03:00:58;25.14;55.09
70170;DHT22;57543;45.442;9.212;2023-06-19T03:04:02;25.15;54.49
70170;DHT22;57543;45.442;9.212;2023-06-19T03:07:07;25.20;54.38
70170;DHT22;57543;45.442;9.212;2023-06-19T03:10:10;25.18;54.53
70170;DHT22;57543;45.442;9.212;2023-06-19T03:13:14;25.17;55.18
70170;DHT22;57543;45.442;9.212;2023-06-19T03:16:17;25.08;56.22
70170;DHT22;57543;45.442;9.212;2023-06-19T03:19:21;25.07;55.61
70170;DHT22;57543;45.442;9.212;2023-06-19T03:22:27;25.07;54.52
70170;DHT22;57543;45.442;9.212;2023-06-19T03:25:31;25.15;54.26
70170;DHT22;57543;45.442;9.212;2023-06-19T03:28:39;25.08;55.11
70170;DHT22;57543;45.442;9.212;2023-06-19T03:31:44;25.07;54.64
70170;DHT22;57543;45.442;9.212;2023-06-19T03:34:50;25.10;54.43
70170;DHT22;57543;45.442;9.212;2023-06-19T03:37:54;25.15;53.99
70170;DHT22;57543;45.442;9.212;2023-06-19T03:40:58;25.14;54.00
70170;DHT22;57543;45.442;9.212;2023-06-19T03:44:03;25.17;54.22
70170;DHT22;57543;45.442;9.212;2023-06-19T03:47:07;25.06;54.79
70170;DHT22;57543;45.442;9.212;2023-06-19T03:50:10;25.07;55.02
70170;DHT22;57543;45.442;9.212;2023-06-19T03:53:14;25.00;55.46
70170;DHT22;57543;45.442;9.212;2023-06-19T03:56:18;25.10;55.43
70170;DHT22;57543;45.442;9.212;2023-06-19T03:59:21;25.01;56.07
70170;DHT22;57543;45.442;9.212;2023-06-19T04:02:25;25.04;55.99
70170;DHT22;57543;45.442;9.212;2023-06-19T04:05:29;25.03;56.12
70170;DHT22;57543;45.442;9.212;2023-06-19T04:08:33;24.98;56.55
70170;DHT22;57543;45.442;9.212;2023-06-19T04:11:37;25.03;56.49
70170;DHT22;57543;45.442;9.212;2023-06-19T04:14:40;24.98;56.75
70170;DHT22;57543;45.442;9.212;2023-06-19T04:17:43;25.04;56.77
70170;DHT22;57543;45.442;9.212;2023-06-19T04:20:46;25.06;56.77
70170;DHT22;57543;45.442;9.212;2023-06-19T04:23:50;25.08;56.90
70170;DHT22;57543;45.442;9.212;2023-06-19T04:26:53;25.08;56.91
70170;DHT22;57543;45.442;9.212;2023-06-19T04:29:58;25.04;57.04
70170;DHT22;57543;45.442;9.212;2023-06-19T04:33:01;24.87;57.49
70170;DHT22;57543;45.442;9.212;2023-06-19T04:36:04;24.86;57.66
70170;DHT22;57543;45.442;9.212;2023-06-19T04:39:08;24.86;57.37
70170;DHT22;57543;45.442;9.212;2023-06-19T04:42:13;24.91;56.97
70170;DHT22;57543;45.442;9.212;2023-06-19T04:45:22;24.94;57.04
70170;DHT22;57543;45.442;9.212;2023-06-19T04:48:26;24.97;56.79
70170;DHT22;57543;45.442;9.212;2023-06-19T04:51:33;25.01;56.75
70170;DHT22;57543;45.442;9.212;2023-06-19T04:54:36;25.06;56.52
70170;DHT22;57543;45.442;9.212;2023-06-19T04:57:42;24.87;57.27
70170;DHT22;57543;45.442;9.212;2023-06-19T05:00:46;24.97;56.90
70170;DHT22;57543;45.442;9.212;2023-06-19T05:03:55;24.97;56.88
70170;DHT22;57543;45.442;9.212;2023-06-19T05:06:59;25.01;57.09
70170;DHT22;57543;45.442;9.212;2023-06-19T05:10:03;25.01;57.37
70170;DHT22;57543;45.442;9.212;2023-06-19T05:13:07;25.00;57.86
70170;DHT22;57543;45.442;9.212;2023-06-19T05:16:10;25.00;57.66
70170;DHT22;57543;45.442;9.212;2023-06-19T05:19:15;25.12;57.59
70170;DHT22;57543;45.442;9.212;2023-06-19T05:22:18;25.10;57.71
70170;DHT22;57543;45.442;9.212;2023-06-19T05:25:21;25.15;57.53
70170;DHT22;57543;45.442;9.212;2023-06-19T05:28:25;25.08;57.84
70170;DHT22;57543;45.442;9.212;2023-06-19T05:31:28;24.84;58.85
70170;DHT22;57543;45.442;9.212;2023-06-19T05:34:32;24.84;59.43
70170;DHT22;57543;45.442;9.212;2023-06-19T05:37:35;25.03;58.49
70170;DHT22;57543;45.442;9.212;2023-06-19T05:40:39;25.07;58.14
70170;DHT22;57543;45.442;9.212;2023-06-19T05:43:42;25.15;58.08
70170;DHT22;57543;45.442;9.212;2023-06-19T05:46:46;25.28;57.83
70170;DHT22;57543;45.442;9.212;2023-06-19T05:49:49;25.37;57.81
70170;DHT22;57543;45.442;9.212;2023-06-19T05:52:53;25.48;57.75
70170;DHT22;57543;45.442;9.212;2023-06-19T05:55:56;25.53;58.11
70170;DHT22;57543;45.442;9.212;2023-06-19T05:59:01;25.59;58.47
70170;DHT22;57543;45.442;9.212;2023-06-19T06:02:06;25.55;58.77
70170;DHT22;57543;45.442;9.212;2023-06-19T06:05:09;25.56;59.20
70170;DHT22;57543;45.442;9.212;2023-06-19T06:08:13;25.46;59.77
70170;DHT22;57543;45.442;9.212;2023-06-19T06:11:17;25.46;59.57
70170;DHT22;57543;45.442;9.212;2023-06-19T06:14:21;25.25;61.06
70170;DHT22;57543;45.442;9.212;2023-06-19T06:17:25;25.38;61.11
70170;DHT22;57543;45.442;9.212;2023-06-19T06:20:29;25.31;61.47
70170;DHT22;57543;45.442;9.212;2023-06-19T06:23:32;25.42;61.22
70170;DHT22;57543;45.442;9.212;2023-06-19T06:26:35;25.48;62.04
70170;DHT22;57543;45.442;9.212;2023-06-19T06:29:40;25.53;62.40
70170;DHT22;57543;45.442;9.212;2023-06-19T06:32:43;25.59;63.02
70170;DHT22;57543;45.442;9.212;2023-06-19T06:35:47;25.66;62.82
70170;DHT22;57543;45.442;9.212;2023-06-19T06:38:50;25.79;62.68
70170;DHT22;57543;45.442;9.212;2023-06-19T06:41:54;25.76;63.21
70170;DHT22;57543;45.442;9.212;2023-06-19T06:44:58;25.82;63.33
70170;DHT22;57543;45.442;9.212;2023-06-19T06:48:02;25.76;63.82
70170;DHT22;57543;45.442;9.212;2023-06-19T06:51:05;25.87;63.37
70170;DHT22;57543;45.442;9.212;2023-06-19T06:54:10;25.41;64.46
70170;DHT22;57543;45.442;9.212;2023-06-19T06:57:14;25.66;64.20
70170;DHT22;57543;45.442;9.212;2023-06-19T07:00:18;25.84;64.10
70170;DHT22;57543;45.442;9.212;2023-06-19T07:03:22;25.76;63.36
70170;DHT22;57543;45.442;9.212;2023-06-19T07:06:25;25.79;63.83
70170;DHT22;57543;45.442;9.212;2023-06-19T07:09:29;25.96;63.02
70170;DHT22;57543;45.442;9.212;2023-06-19T07:12:33;25.96;63.27
70170;DHT22;57543;45.442;9.212;2023-06-19T07:15:37;26.03;63.54
70170;DHT22;57543;45.442;9.212;2023-06-19T07:18:40;26.03;64.57
70170;DHT22;57543;45.442;9.212;2023-06-19T07:21:44;26.13;63.01
70170;DHT22;57543;45.442;9.212;2023-06-19T07:24:48;25.97;63.60
70170;DHT22;57543;45.442;9.212;2023-06-19T07:27:52;26.17;63.10
70170;DHT22;57543;45.442;9.212;2023-06-19T07:30:56;26.21;62.96
70170;DHT22;57543;45.442;9.212;2023-06-19T07:33:59;26.24;63.59
70170;DHT22;57543;45.442;9.212;2023-06-19T07:37:03;26.35;62.60
70170;DHT22;57543;45.442;9.212;2023-06-19T07:40:07;26.46;61.49
70170;DHT22;57543;45.442;9.212;2023-06-19T07:43:10;26.53;61.55
70170;DHT22;57543;45.442;9.212;2023-06-19T07:46:15;26.41;61.37
70170;DHT22;57543;45.442;9.212;2023-06-19T07:49:18;26.52;61.51
70170;DHT22;57543;45.442;9.212;2023-06-19T07:52:22;26.49;61.47
70170;DHT22;57543;45.442;9.212;2023-06-19T07:55:25;26.66;60.75
70170;DHT22;57543;45.442;9.212;2023-06-19T07:58:29;26.68;59.22
70170;DHT22;57543;45.442;9.212;2023-06-19T08:01:33;26.80;59.85
70170;DHT22;57543;45.442;9.212;2023-06-19T08:04:36;26.78;60.73
70170;DHT22;57543;45.442;9.212;2023-06-19T08:07:40;26.46;61.00
70170;DHT22;57543;45.442;9.212;2023-06-19T08:10:44;26.62;60.63
70170;DHT22;57543;45.442;9.212;2023-06-19T08:13:47;26.84;60.56
70170;DHT22;57543;45.442;9.212;2023-06-19T08:16:50;26.80;59.85
70170;DHT22;57543;45.442;9.212;2023-06-19T08:19:54;26.79;60.04
70170;DHT22;57543;45.442;9.212;2023-06-19T08:22:58;26.82;60.36
70170;DHT22;57543;45.442;9.212;2023-06-19T08:26:01;26.87;59.28
70170;DHT22;57543;45.442;9.212;2023-06-19T08:29:05;26.73;59.43
70170;DHT22;57543;45.442;9.212;2023-06-19T08:32:08;26.84;58.26
70170;DHT22;57543;45.442;9.212;2023-06-19T08:35:12;26.94;56.95
70170;DHT22;57543;45.442;9.212;2023-06-19T08:38:16;26.86;59.34
70170;DHT22;57543;45.442;9.212;2023-06-19T08:41:19;26.89;59.50
70170;DHT22;57543;45.442;9.212;2023-06-19T08:44:23;26.99;58.73
70170;DHT22;57543;45.442;9.212;2023-06-19T08:47:31;27.12;56.33
70170;DHT22;57543;45.442;9.212;2023-06-19T08:50:35;27.27;55.69
70170;DHT22;57543;45.442;9.212;2023-06-19T08:53:49;27.41;56.02
70170;DHT22;57543;45.442;9.212;2023-06-19T08:56:55;27.58;56.05
70170;DHT22;57543;45.442;9.212;2023-06-19T08:59:59;27.67;56.59
70170;DHT22;57543;45.442;9.212;2023-06-19T09:03:03;27.73;56.74
70170;DHT22;57543;45.442;9.212;2023-06-19T09:06:07;27.79;56.35
70170;DHT22;57543;45.442;9.212;2023-06-19T09:09:12;27.83;56.34
70170;DHT22;57543;45.442;9.212;2023-06-19T09:12:16;27.89;56.06
70170;DHT22;57543;45.442;9.212;2023-06-19T09:15:30;28.06;55.48
70170;DHT22;57543;45.442;9.212;2023-06-19T09:18:46;28.20;54.19
70170;DHT22;57543;45.442;9.212;2023-06-19T09:22:02;28.25;55.23
70170;DHT22;57543;45.442;9.212;2023-06-19T09:25:06;28.25;54.34
70170;DHT22;57543;45.442;9.212;2023-06-19T09:28:23;28.38;54.44
70170;DHT22;57543;45.442;9.212;2023-06-19T09:31:32;28.47;53.89
70170;DHT22;57543;45.442;9.212;2023-06-19T09:34:36;28.60;54.07
70170;DHT22;57543;45.442;9.212;2023-06-19T09:37:40;28.66;54.41
70170;DHT22;57543;45.442;9.212;2023-06-19T09:40:46;28.82;53.78
70170;DHT22;57543;45.442;9.212;2023-06-19T09:43:53;28.80;53.47
70170;DHT22;57543;45.442;9.212;2023-06-19T09:46:59;28.82;56.34
70170;DHT22;57543;45.442;9.212;2023-06-19T09:50:06;29.02;53.76
70170;DHT22;57543;45.442;9.212;2023-06-19T09:53:10;29.03;53.03
70170;DHT22;57543;45.442;9.212;2023-06-19T09:56:15;29.15;51.96
70170;DHT22;57543;45.442;9.212;2023-06-19T09:59:19;29.31;50.80
70170;DHT22;57543;45.442;9.212;2023-06-19T10:02:25;29.35;48.24
70170;DHT22;57543;45.442;9.212;2023-06-19T10:05:31;29.38;48.79
70170;DHT22;57543;45.442;9.212;2023-06-19T10:08:40;29.48;48.60
70170;DHT22;57543;45.442;9.212;2023-06-19T10:11:48;29.51;48.81
70170;DHT22;57543;45.442;9.212;2023-06-19T10:14:54;29.56;47.22
70170;DHT22;57543;45.442;9.212;2023-06-19T10:18:05;29.49;46.88
70170;DHT22;57543;45.442;9.212;2023-06-19T10:21:21;29.62;47.05
70170;DHT22;57543;45.442;9.212;2023-06-19T10:24:25;29.47;46.87
70170;DHT22;57543;45.442;9.212;2023-06-19T10:27:34;29.56;47.34
70170;DHT22;57543;45.442;9.212;2023-06-19T10:30:41;29.61;47.53
70170;DHT22;57543;45.442;9.212;2023-06-19T10:33:44;29.65;48.57
70170;DHT22;57543;45.442;9.212;2023-06-19T10:36:48;29.76;48.99
70170;DHT22;57543;45.442;9.212;2023-06-19T10:39:52;29.82;48.75
70170;DHT22;57543;45.442;9.212;2023-06-19T10:42:56;29.90;49.11
70170;DHT22;57543;45.442;9.212;2023-06-19T10:46:02;29.97;48.94
70170;DHT22;57543;45.442;9.212;2023-06-19T10:49:08;30.06;49.15
70170;DHT22;57543;45.442;9.212;2023-06-19T10:52:13;30.17;50.02
70170;DHT22;57543;45.442;9.212;2023-06-19T10:55:17;30.23;49.81
70170;DHT22;57543;45.442;9.212;2023-06-19T10:58:21;30.24;49.60
70170;DHT22;57543;45.442;9.212;2023-06-19T11:04:40;30.45;51.01
70170;DHT22;57543;45.442;9.212;2023-06-19T11:07:52;30.45;50.34
70170;DHT22;57543;45.442;9.212;2023-06-19T11:10:56;30.55;50.01
70170;DHT22;57543;45.442;9.212;2023-06-19T11:13:59;30.45;50.18
70170;DHT22;57543;45.442;9.212;2023-06-19T11:17:03;30.49;49.98
70170;DHT22;57543;45.442;9.212;2023-06-19T11:20:11;30.68;51.03
70170;DHT22;57543;45.442;9.212;2023-06-19T11:23:17;30.79;49.68
70170;DHT22;57543;45.442;9.212;2023-06-19T11:26:24;30.90;50.19
70170;DHT22;57543;45.442;9.212;2023-06-19T11:29:31;30.97;49.49
70170;DHT22;57543;45.442;9.212;2023-06-19T11:32:38;30.97;50.64
70170;DHT22;57543;45.442;9.212;2023-06-19T11:35:49;31.06;50.40
70170;DHT22;57543;45.442;9.212;2023-06-19T11:38:55;31.10;51.18
70170;DHT22;57543;45.442;9.212;2023-06-19T11:41:59;31.03;50.47
70170;DHT22;57543;45.442;9.212;2023-06-19T11:45:04;30.79;50.83
70170;DHT22;57543;45.442;9.212;2023-06-19T11:48:12;30.97;51.37
70170;DHT22;57543;45.442;9.212;2023-06-19T11:51:17;31.11;50.51
70170;DHT22;57543;45.442;9.212;2023-06-19T11:54:21;31.16;49.82
70170;DHT22;57543;45.442;9.212;2023-06-19T11:57:26;31.27;50.05
70170;DHT22;57543;45.442;9.212;2023-06-19T12:00:30;31.20;50.16
70170;DHT22;57543;45.442;9.212;2023-06-19T12:03:33;31.24;49.66
70170;DHT22;57543;45.442;9.212;2023-06-19T12:06:37;31.28;50.10
70170;DHT22;57543;45.442;9.212;2023-06-19T12:09:46;31.33;50.81
70170;DHT22;57543;45.442;9.212;2023-06-19T12:12:50;31.38;50.06
70170;DHT22;57543;45.442;9.212;2023-06-19T12:15:53;31.38;52.83
70170;DHT22;57543;45.442;9.212;2023-06-19T12:18:56;31.48;50.73
70170;DHT22;57543;45.442;9.212;2023-06-19T12:22:00;31.58;50.99
70170;DHT22;57543;45.442;9.212;2023-06-19T12:25:04;31.49;49.49
70170;DHT22;57543;45.442;9.212;2023-06-19T12:28:07;31.63;50.05
70170;DHT22;57543;45.442;9.212;2023-06-19T12:31:11;31.68;49.72
70170;DHT22;57543;45.442;9.212;2023-06-19T12:34:15;31.70;49.08
70170;DHT22;57543;45.442;9.212;2023-06-19T12:37:21;31.76;48.37
70170;DHT22;57543;45.442;9.212;2023-06-19T12:40:25;31.80;48.57
70170;DHT22;57543;45.442;9.212;2023-06-19T12:43:28;31.75;48.84
70170;DHT22;57543;45.442;9.212;2023-06-19T12:46:32;31.69;49.04
70170;DHT22;57543;45.442;9.212;2023-06-19T12:49:35;31.70;51.02
70170;DHT22;57543;45.442;9.212;2023-06-19T12:52:39;31.72;48.92
70170;DHT22;57543;45.442;9.212;2023-06-19T12:55:42;31.85;48.90
70170;DHT22;57543;45.442;9.212;2023-06-19T12:58:46;31.82;48.60
70170;DHT22;57543;45.442;9.212;2023-06-19T13:01:49;31.83;48.09
70170;DHT22;57543;45.442;9.212;2023-06-19T13:04:52;31.83;48.65
70170;DHT22;57543;45.442;9.212;2023-06-19T13:07:56;31.83;48.32
70170;DHT22;57543;45.442;9.212;2023-06-19T13:11:00;31.83;48.13
70170;DHT22;57543;45.442;9.212;2023-06-19T13:14:04;31.78;47.87
70170;DHT22;57543;45.442;9.212;2023-06-19T13:17:08;31.94;47.46
70170;DHT22;57543;45.442;9.212;2023-06-19T13:20:11;31.96;46.73
70170;DHT22;57543;45.442;9.212;2023-06-19T13:23:15;31.94;46.33
70170;DHT22;57543;45.442;9.212;2023-06-19T13:26:18;31.97;45.94
70170;DHT22;57543;45.442;9.212;2023-06-19T13:29:22;32.00;46.78
70170;DHT22;57543;45.442;9.212;2023-06-19T13:32:26;32.10;47.31
70170;DHT22;57543;45.442;9.212;2023-06-19T13:35:30;32.02;47.10
70170;DHT22;57543;45.442;9.212;2023-06-19T13:38:33;32.13;46.04
70170;DHT22;57543;45.442;9.212;2023-06-19T13:41:37;32.16;46.38
70170;DHT22;57543;45.442;9.212;2023-06-19T13:44:40;32.13;47.12
70170;DHT22;57543;45.442;9.212;2023-06-19T13:47:43;32.17;47.00
70170;DHT22;57543;45.442;9.212;2023-06-19T13:50:46;32.27;46.77
70170;DHT22;57543;45.442;9.212;2023-06-19T13:53:51;32.25;47.63
70170;DHT22;57543;45.442;9.212;2023-06-19T13:56:55;32.28;46.94
70170;DHT22;57543;45.442;9.212;2023-06-19T13:59:58;32.33;46.55
70170;DHT22;57543;45.442;9.212;2023-06-19T14:03:02;32.41;46.84
70170;DHT22;57543;45.442;9.212;2023-06-19T14:06:10;32.37;47.27
70170;DHT22;57543;45.442;9.212;2023-06-19T14:09:13;32.47;46.77
70170;DHT22;57543;45.442;9.212;2023-06-19T14:12:20;32.42;46.46
70170;DHT22;57543;45.442;9.212;2023-06-19T14:15:24;32.35;47.05
70170;DHT22;57543;45.442;9.212;2023-06-19T14:18:28;32.40;47.22
70170;DHT22;57543;45.442;9.212;2023-06-19T14:21:31;32.45;46.61
70170;DHT22;57543;45.442;9.212;2023-06-19T14:24:35;32.41;46.55
70170;DHT22;57543;45.442;9.212;2023-06-19T14:27:39;32.45;47.00
70170;DHT22;57543;45.442;9.212;2023-06-19T14:30:42;32.37;46.65
70170;DHT22;57543;45.442;9.212;2023-06-19T14:33:46;32.33;46.85
70170;DHT22;57543;45.442;9.212;2023-06-19T14:36:49;32.30;46.79
70170;DHT22;57543;45.442;9.212;2023-06-19T14:39:53;32.17;47.45
70170;DHT22;57543;45.442;9.212;2023-06-19T14:42:57;32.20;47.39
70170;DHT22;57543;45.442;9.212;2023-06-19T14:46:01;32.05;48.33
70170;DHT22;57543;45.442;9.212;2023-06-19T14:49:09;32.00;48.63
70170;DHT22;57543;45.442;9.212;2023-06-19T14:52:13;32.13;48.65
70170;DHT22;57543;45.442;9.212;2023-06-19T14:55:18;32.19;48.33
70170;DHT22;57543;45.442;9.212;2023-06-19T14:58:22;32.25;47.96
70170;DHT22;57543;45.442;9.212;2023-06-19T15:01:25;32.21;48.98
70170;DHT22;57543;45.442;9.212;2023-06-19T15:04:30;31.96;49.32
70170;DHT22;57543;45.442;9.212;2023-06-19T15:07:34;31.93;48.71
70170;DHT22;57543;45.442;9.212;2023-06-19T15:10:38;31.89;48.89
70170;DHT22;57543;45.442;9.212;2023-06-19T15:13:42;31.88;48.72
70170;DHT22;57543;45.442;9.212;2023-06-19T15:16:45;31.76;48.52
70170;DHT22;57543;45.442;9.212;2023-06-19T15:19:49;31.72;48.56
70170;DHT22;57543;45.442;9.212;2023-06-19T15:22:52;31.79;48.63
70170;DHT22;57543;45.442;9.212;2023-06-19T15:25:55;31.85;48.46
70170;DHT22;57543;45.442;9.212;2023-06-19T15:28:59;31.62;49.59
70170;DHT22;57543;45.442;9.212;2023-06-19T15:32:02;31.72;49.73
70170;DHT22;57543;45.442;9.212;2023-06-19T15:35:08;31.57;48.87
70170;DHT22;57543;45.442;9.212;2023-06-19T15:38:11;31.44;49.33
70170;DHT22;57543;45.442;9.212;2023-06-19T15:41:15;31.41;49.69
70170;DHT22;57543;45.442;9.212;2023-06-19T15:44:19;31.48;50.62
70170;DHT22;57543;45.442;9.212;2023-06-19T15:47:23;31.49;49.52
70170;DHT22;57543;45.442;9.212;2023-06-19T15:50:27;31.46;49.10
70170;DHT22;57543;45.442;9.212;2023-06-19T15:53:31;31.44;49.33
70170;DHT22;57543;45.442;9.212;2023-06-19T15:56:35;31.44;49.47
70170;DHT22;57543;45.442;9.212;2023-06-19T15:59:39;31.44;49.16
70170;DHT22;57543;45.442;9.212;2023-06-19T16:02:42;31.44;48.73
70170;DHT22;57543;45.442;9.212;2023-06-19T16:05:51;31.42;48.72
70170;DHT22;57543;45.442;9.212;2023-06-19T16:08:55;31.46;48.64
70170;DHT22;57543;45.442;9.212;2023-06-19T16:11:59;31.49;49.14
70170;DHT22;57543;45.442;9.212;2023-06-19T16:15:04;31.35;50.17
70170;DHT22;57543;45.442;9.212;2023-06-19T16:18:08;31.39;51.05
70170;DHT22;57543;45.442;9.212;2023-06-19T16:21:12;31.41;50.22
70170;DHT22;57543;45.442;9.212;2023-06-19T16:24:16;31.44;49.80
70170;DHT22;57543;45.442;9.212;2023-06-19T16:27:19;31.48;49.78
70170;DHT22;57543;45.442;9.212;2023-06-19T16:30:23;31.48;49.89
70170;DHT22;57543;45.442;9.212;2023-06-19T16:33:29;31.35;50.05
70170;DHT22;57543;45.442;9.212;2023-06-19T16:36:32;31.27;50.93
70170;DHT22;57543;45.442;9.212;2023-06-19T16:39:36;31.14;50.89
70170;DHT22;57543;45.442;9.212;2023-06-19T16:42:40;31.18;50.30
70170;DHT22;57543;45.442;9.212;2023-06-19T16:45:44;31.21;50.41
70170;DHT22;57543;45.442;9.212;2023-06-19T16:48:47;31.07;50.96
70170;DHT22;57543;45.442;9.212;2023-06-19T16:51:50;31.03;51.59
70170;DHT22;57543;45.442;9.212;2023-06-19T16:54:54;31.01;51.24
70170;DHT22;57543;45.442;9.212;2023-06-19T16:57:58;30.89;51.86
70170;DHT22;57543;45.442;9.212;2023-06-19T17:01:02;30.96;51.73
70170;DHT22;57543;45.442;9.212;2023-06-19T17:04:06;30.93;52.00
70170;DHT22;57543;45.442;9.212;2023-06-19T17:07:10;30.87;52.44
70170;DHT22;57543;45.442;9.212;2023-06-19T17:10:13;30.79;52.62
70170;DHT22;57543;45.442;9.212;2023-06-19T17:13:18;30.82;52.59
70170;DHT22;57543;45.442;9.212;2023-06-19T17:16:21;30.80;52.46
70170;DHT22;57543;45.442;9.212;2023-06-19T17:19:26;30.76;52.77
70170;DHT22;57543;45.442;9.212;2023-06-19T17:22:30;30.69;53.07
70170;DHT22;57543;45.442;9.212;2023-06-19T17:25:33;30.69;53.43
70170;DHT22;57543;45.442;9.212;2023-06-19T17:28:37;30.62;52.36
70170;DHT22;57543;45.442;9.212;2023-06-19T17:31:41;30.49;51.44
70170;DHT22;57543;45.442;9.212;2023-06-19T17:34:44;30.48;50.27
70170;DHT22;57543;45.442;9.212;2023-06-19T17:37:48;30.42;50.77
70170;DHT22;57543;45.442;9.212;2023-06-19T17:40:52;30.35;51.10
70170;DHT22;57543;45.442;9.212;2023-06-19T17:43:56;30.24;50.79
70170;DHT22;57543;45.442;9.212;2023-06-19T17:46:59;30.10;49.17
70170;DHT22;57543;45.442;9.212;2023-06-19T17:50:03;30.13;47.94
70170;DHT22;57543;45.442;9.212;2023-06-19T17:53:07;30.11;47.32
70170;DHT22;57543;45.442;9.212;2023-06-19T17:56:11;30.14;46.85
70170;DHT22;57543;45.442;9.212;2023-06-19T17:59:14;30.04;46.10
70170;DHT22;57543;45.442;9.212;2023-06-19T18:02:17;30.04;46.47
70170;DHT22;57543;45.442;9.212;2023-06-19T18:05:21;30.04;46.76
70170;DHT22;57543;45.442;9.212;2023-06-19T18:08:24;29.97;47.11
70170;DHT22;57543;45.442;9.212;2023-06-19T18:11:28;30.00;46.11
70170;DHT22;57543;45.442;9.212;2023-06-19T18:14:32;29.99;45.66
70170;DHT22;57543;45.442;9.212;2023-06-19T18:17:35;29.93;45.61
70170;DHT22;57543;45.442;9.212;2023-06-19T18:20:38;29.93;45.66
70170;DHT22;57543;45.442;9.212;2023-06-19T18:23:44;29.83;45.18
70170;DHT22;57543;45.442;9.212;2023-06-19T18:26:47;29.79;45.29
70170;DHT22;57543;45.442;9.212;2023-06-19T18:29:51;29.75;45.09
70170;DHT22;57543;45.442;9.212;2023-06-19T18:32:54;29.70;44.75
70170;DHT22;57543;45.442;9.212;2023-06-19T18:36:00;29.63;44.67
70170;DHT22;57543;45.442;9.212;2023-06-19T18:39:04;29.59;45.26
70170;DHT22;57543;45.442;9.212;2023-06-19T18:42:07;29.58;45.34
70170;DHT22;57543;45.442;9.212;2023-06-19T18:45:13;29.52;45.66
70170;DHT22;57543;45.442;9.212;2023-06-19T18:48:17;29.47;45.65
70170;DHT22;57543;45.442;9.212;2023-06-19T18:51:22;29.42;45.55
70170;DHT22;57543;45.442;9.212;2023-06-19T18:54:26;29.39;45.42
70170;DHT22;57543;45.442;9.212;2023-06-19T18:57:29;29.35;45.50
70170;DHT22;57543;45.442;9.212;2023-06-19T19:00:33;29.34;45.48
70170;DHT22;57543;45.442;9.212;2023-06-19T19:03:37;29.25;45.96
70170;DHT22;57543;45.442;9.212;2023-06-19T19:06:40;29.15;46.75
70170;DHT22;57543;45.442;9.212;2023-06-19T19:09:44;29.14;46.00
70170;DHT22;57543;45.442;9.212;2023-06-19T19:12:47;29.11;45.66
70170;DHT22;57543;45.442;9.212;2023-06-19T19:15:50;29.10;45.81
70170;DHT22;57543;45.442;9.212;2023-06-19T19:18:54;29.11;45.59
70170;DHT22;57543;45.442;9.212;2023-06-19T19:21:58;29.03;46.45
70170;DHT22;57543;45.442;9.212;2023-06-19T19:25:02;28.92;46.79
70170;DHT22;57543;45.442;9.212;2023-06-19T19:28:05;29.00;46.15